Thunder radar more information blitzortung!


Radar de pluja more information rain snow radar


Visita la nostra xarxa de llocs de meteo:

Template documentation
and downloads

And another site



No particular awareness of the weather is required.    There are no Weather-warnings

Pagina Historial Weather Underground text

Diari Resum Juliol 30, 2017 Unitats:  Imperial    Mètric   Tant
« Previous Dia
SegĂźent Dia »
Diari Setmana Mensual Anual Personalitzada
  Maxima: Minima: Media:
Temperatura: TemperatureC °F 19.9 °F 27.8 °F
Punt de rosada: DewpointC °F 14.9 °F 17.4 °F
Humitat: Humidity % 34 % 55 %
Wind Speed: WindSpeedKMH mph 0.0 mph 8 mph
RĂ fegues de vent: WindSpeedGustKMH mph - -
Vent:- - East
Pression baro: PressurehPa in 1009.0 in -
Precipitacions: 0.0 in    
Historical Graphs
 
 
Dades de taula per Juliol 30, 2017
Temps Temperatura Punt de rosada Pression baro Vent Wind Speed RĂ fegues de vent Humitat Rainfall Rate (Hourly)
TemperatureC °F DewpointC °F PressurehPa in Calm     Humidity % HourlyPrecipMM in
00:00 21.1 °F 14.9 °F 1011.7 in Calm   3.2 mph 68 % 0.0 in
00:04 24.6 °F 16.3 °F 1013.8 in Calm     60 % 0.0 in
00:09 24.5 °F 16.2 °F 1013.8 in Calm     60 % 0.0 in
00:10 20.8 °F 15.1 °F 1011.7 in Calm   1.6 mph 70 % 0.0 in
00:14 24.5 °F 16.5 °F 1013.8 in WNW 1.9 mph   61 % 0.0 in
00:19 24.4 °F 16.4 °F 1013.8 in Calm     61 % 0.0 in
00:20 20.6 °F 15.2 °F 1011.7 in Calm     71 % 0.0 in
00:24 24.4 °F 16.7 °F 1013.8 in Calm     62 % 0.0 in
00:29 24.3 °F 16.6 °F 1013.8 in Calm     62 % 0.0 in
00:30 20.5 °F 15.1 °F 1011.7 in Calm   1.6 mph 71 % 0.0 in
00:34 24.2 °F 16.4 °F 1013.8 in Calm     62 % 0.0 in
00:40 20.4 °F 15.2 °F 1011.7 in Calm   3.2 mph 72 % 0.0 in
00:50 20.4 °F 15.4 °F 1011.7 in Calm     73 % 0.0 in
01:00 20.3 °F 15.3 °F 1011.7 in Calm     73 % 0.0 in
01:10 20.2 °F 15.2 °F 1011.7 in Calm     73 % 0.0 in
01:20 20.2 °F 15.2 °F 1011.7 in Calm     73 % 0.0 in
01:30 20.3 °F 15.3 °F 1011.7 in Calm     73 % 0.0 in
01:40 20.1 °F 15.1 °F 1011.7 in Calm     73 % 0.0 in
01:50 19.9 °F 15.1 °F 1011.7 in Calm     74 % 0.0 in
02:00 19.9 °F 15.3 °F 1011.7 in Calm     75 % 0.0 in
02:10 19.9 °F 15.3 °F 1011.7 in Calm     75 % 0.0 in
02:20 20.1 °F 15.3 °F 1011.7 in Calm     74 % 0.0 in
02:30 20.2 °F 15.4 °F 1011.7 in Calm     74 % 0.0 in
02:40 20.7 °F 15.9 °F 1011.7 in Calm   1.6 mph 74 % 0.0 in
02:50 20.9 °F 15.7 °F 1010.7 in ESE 1.6 mph 1.6 mph 72 % 0.0 in
03:00 20.9 °F 15.4 °F 1010.7 in South 3.2 mph 3.2 mph 71 % 0.0 in
03:10 21.5 °F 16.0 °F 1011.7 in Calm   3.2 mph 71 % 0.0 in
03:20 21.6 °F 15.9 °F 1010.7 in Calm   3.2 mph 70 % 0.0 in
03:30 22.2 °F 16.0 °F 1010.7 in WSW 1.6 mph 3.2 mph 68 % 0.0 in
03:40 22.6 °F 16.4 °F 1011.7 in SW 1.6 mph 3.2 mph 68 % 0.0 in
03:50 22.7 °F 16.3 °F 1011.7 in SW 1.6 mph 3.2 mph 67 % 0.0 in
04:00 23.6 °F 16.9 °F 1011.7 in Calm   1.6 mph 66 % 0.0 in
04:10 24.2 °F 16.4 °F 1011.7 in NNE 1.6 mph 3.2 mph 62 % 0.0 in
04:20 24.9 °F 16.6 °F 1011.7 in NE 3.2 mph 3.2 mph 60 % 0.0 in
04:30 25.6 °F 16.4 °F 1011.7 in ENE 1.6 mph 3.2 mph 57 % 0.0 in
04:40 25.7 °F 16.0 °F 1011.7 in ENE 1.6 mph 4.8 mph 55 % 0.0 in
04:50 26.0 °F 15.9 °F 1011.7 in East 3.2 mph 4.8 mph 54 % 0.0 in
05:10 27.8 °F 17.1 °F 1011.7 in Calm   3.2 mph 52 % 0.0 in
05:20 27.4 °F 16.4 °F 1010.7 in ESE 4.8 mph 4.8 mph 51 % 0.0 in
05:30 27.6 °F 16.2 °F 1010.7 in ESE 4.8 mph 4.8 mph 50 % 0.0 in
05:40 27.8 °F 16.7 °F 1011.7 in East 3.2 mph 6.4 mph 51 % 0.0 in
05:50 28.1 °F 16.7 °F 1011.7 in East 4.8 mph 6.4 mph 50 % 0.0 in
06:00 28.5 °F 17.1 °F 1011.7 in East 4.8 mph 6.4 mph 50 % 0.0 in
06:10 29.4 °F 17.2 °F 1011.7 in East 4.8 mph 6.4 mph 48 % 0.0 in
06:20 29.1 °F 17.3 °F 1011.7 in ENE 4.8 mph 6.4 mph 49 % 0.0 in
11:30 30.2 °F 18.0 °F 1011.7 in SSW 3.9 mph 5.0 mph 48 % 0.0 in
11:35 30.9 °F 18.6 °F 1011.7 in West 3.5 mph 3.5 mph 48 % 0.0 in
11:45 31.3 °F 18.7 °F 1011.7 in SE 7.4 mph 7.4 mph 47 % 0.0 in
11:50 30.3 °F 17.7 °F 1011.7 in ESE 11.1 mph 11.1 mph 47 % 0.0 in
11:54 31.1 °F 18.1 °F 1011.7 in SSE 5.6 mph 5.6 mph 46 % 0.0 in
11:55 31.1 °F 18.1 °F 1011.7 in West 5.6 mph 5.6 mph 46 % 0.0 in
12:00 30.9 °F 18.3 °F 1011.7 in East 5.6 mph 5.6 mph 47 % 0.0 in
12:05 31.4 °F 18.7 °F 1011.7 in SSW 3.7 mph 3.7 mph 47 % 0.0 in
12:10 32.0 °F 18.9 °F 1011.7 in SW 5.6 mph 5.6 mph 46 % 0.0 in
12:15 31.6 °F 18.9 °F 1011.7 in ENE 5.6 mph 5.6 mph 47 % 0.0 in
12:20 31.4 °F 18.7 °F 1010.7 in ENE 11.1 mph 11.1 mph 47 % 0.0 in
12:25 31.0 °F 18.4 °F 1010.7 in ENE 7.4 mph 8.7 mph 47 % 0.0 in
12:30 31.0 °F 18.4 °F 1010.7 in ENE 7.4 mph 7.4 mph 47 % 0.0 in
12:35 31.5 °F 18.8 °F 1011.7 in NE 6.4 mph 6.4 mph 47 % 0.0 in
12:40 31.4 °F 18.7 °F 1011.7 in East 9.3 mph 9.3 mph 47 % 0.0 in
12:45 31.8 °F 19.1 °F 1011.7 in NE 3.7 mph 3.7 mph 47 % 0.0 in
12:50 31.6 °F 18.6 °F 1010.7 in ESE 10.3 mph 10.3 mph 46 % 0.0 in
12:55 31.2 °F 18.2 °F 1010.7 in East 16.7 mph 16.7 mph 46 % 0.0 in
13:00 31.3 °F 17.9 °F 1010.7 in East 17.2 mph 17.2 mph 45 % 0.0 in
13:05 31.7 °F 18.3 °F 1010.7 in ESE 13.0 mph 13.0 mph 45 % 0.0 in
13:10 31.5 °F 18.1 °F 1010.7 in SSE 12.6 mph 12.6 mph 45 % 0.0 in
13:11 31.5 °F 18.1 °F 1010.7 in East 13.0 mph 13.0 mph 45 % 0.0 in
13:16 31.4 °F 17.7 °F 1010.7 in SE 11.1 mph 11.1 mph 44 % 0.0 in
13:21 31.7 °F 17.9 °F 1010.7 in ESE 16.7 mph 16.7 mph 44 % 0.0 in
13:26 31.6 °F 17.8 °F 1010.7 in East 10.3 mph 10.3 mph 44 % 0.0 in
13:31 32.1 °F 17.9 °F 1010.7 in East 18.5 mph 18.5 mph 43 % 0.0 in
13:36 31.8 °F 17.7 °F 1010.0 in SE 18.5 mph 18.5 mph 43 % 0.0 in
13:41 31.8 °F 17.7 °F 1010.0 in SE 13.0 mph 13.0 mph 43 % 0.0 in
13:46 31.8 °F 17.7 °F 1010.0 in ESE 14.8 mph 14.8 mph 43 % 0.0 in
13:51 31.6 °F 17.5 °F 1010.0 in ENE 13.0 mph 14.5 mph 43 % 0.0 in
13:56 31.6 °F 17.8 °F 1010.0 in ENE 20.4 mph 20.4 mph 44 % 0.0 in
14:01 31.8 °F 18.1 °F 1010.0 in NE 14.8 mph 14.8 mph 44 % 0.0 in
14:06 31.7 °F 17.6 °F 1010.0 in ESE 16.7 mph 16.7 mph 43 % 0.0 in
14:11 32.1 °F 18.3 °F 1010.0 in ESE 16.4 mph 16.4 mph 44 % 0.0 in
14:16 32.2 °F 18.1 °F 1010.0 in ENE 9.7 mph 9.7 mph 43 % 0.0 in
14:21 32.1 °F 17.9 °F 1010.0 in SE 18.5 mph 18.5 mph 43 % 0.0 in
14:26 32.0 °F 17.8 °F 1010.0 in ESE 17.2 mph 17.2 mph 43 % 0.0 in
14:31 31.8 °F 17.7 °F 1010.0 in ESE 16.7 mph 16.7 mph 43 % 0.0 in
14:36 32.2 °F 18.1 °F 1010.0 in East 16.7 mph 16.7 mph 43 % 0.0 in
14:41 32.2 °F 17.7 °F 1010.0 in ESE 13.0 mph 14.0 mph 42 % 0.0 in
14:46 32.2 °F 17.7 °F 1010.0 in ESE 20.4 mph 20.4 mph 42 % 0.0 in
14:51 32.4 °F 17.8 °F 1010.0 in East 16.7 mph 16.7 mph 42 % 0.0 in
14:56 32.5 °F 17.9 °F 1010.0 in ESE 14.8 mph 14.8 mph 42 % 0.0 in
15:01 32.4 °F 17.4 °F 1010.0 in East 21.2 mph 21.2 mph 41 % 0.0 in
15:06 32.5 °F 17.9 °F 1010.7 in ESE 22.2 mph 22.2 mph 42 % 0.0 in
15:16 32.3 °F 17.8 °F 1010.7 in ENE 16.7 mph 16.7 mph 42 % 0.0 in
15:21 32.8 °F 18.2 °F 1010.7 in ENE 16.9 mph 16.9 mph 42 % 0.0 in
15:26 32.6 °F 18.0 °F 1010.7 in NNE 18.5 mph 18.5 mph 42 % 0.0 in
15:31 33.0 °F 17.6 °F 1010.7 in East 13.0 mph 13.0 mph 40 % 0.0 in
15:36 33.0 °F 16.8 °F 1010.7 in SE 14.8 mph 14.8 mph 38 % 0.0 in
15:41 33.5 °F 17.7 °F 1010.7 in East 11.1 mph 11.1 mph 39 % 0.0 in
15:46 33.0 °F 17.2 °F 1010.7 in East 11.4 mph 11.4 mph 39 % 0.0 in
15:51 32.9 °F 17.5 °F 1010.0 in ESE 14.8 mph 14.8 mph 40 % 0.0 in
15:56 33.5 °F 16.8 °F 1010.0 in South 9.3 mph 9.3 mph 37 % 0.0 in
16:01 34.1 °F 16.9 °F 1010.0 in East 7.4 mph 7.4 mph 36 % 0.0 in
16:06 34.7 °F 18.3 °F 1010.0 in SW 10.0 mph 10.0 mph 38 % 0.0 in
16:11 34.6 °F 17.8 °F 1010.0 in SW 9.3 mph 9.3 mph 37 % 0.0 in
16:16 34.8 °F 17.5 °F 1010.0 in ESE 5.6 mph 5.6 mph 36 % 0.0 in
16:21 34.5 °F 17.3 °F 1010.0 in SE 14.8 mph 14.8 mph 36 % 0.0 in
16:26 34.5 °F 17.7 °F 1010.0 in South 3.7 mph 3.7 mph 37 % 0.0 in
16:31 35.0 °F 17.3 °F 1010.0 in SSW 9.3 mph 9.3 mph 35 % 0.0 in
16:37 34.8 °F 17.5 °F 1010.0 in South 5.6 mph 5.6 mph 36 % 0.0 in
16:42 35.5 °F 17.2 °F 1010.0 in SSW 5.6 mph 5.6 mph 34 % 0.0 in
16:47 34.4 °F 16.3 °F 1010.0 in ESE 11.1 mph 11.1 mph 34 % 0.0 in
16:52 34.2 °F 17.0 °F 1010.0 in South 9.3 mph 9.3 mph 36 % 0.0 in
16:57 34.1 °F 16.4 °F 1010.0 in NE 9.3 mph 9.3 mph 35 % 0.0 in
17:02 33.8 °F 16.2 °F 1010.0 in NE 9.3 mph 9.3 mph 35 % 0.0 in
17:07 33.9 °F 16.3 °F 1010.0 in SE 9.3 mph 9.3 mph 35 % 0.0 in
17:12 33.9 °F 16.7 °F 1010.0 in ESE 13.0 mph 13.0 mph 36 % 0.0 in
17:17 33.5 °F 16.4 °F 1010.0 in ESE 13.0 mph 13.0 mph 36 % 0.0 in
17:22 32.8 °F 16.2 °F 1010.0 in ESE 14.8 mph 14.8 mph 37 % 0.0 in
17:27 32.7 °F 16.5 °F 1010.0 in ENE 9.3 mph 9.3 mph 38 % 0.0 in
17:32 32.9 °F 16.7 °F 1010.0 in ESE 9.3 mph 9.3 mph 38 % 0.0 in
17:37 32.9 °F 16.7 °F 1010.0 in SE 14.8 mph 14.8 mph 38 % 0.0 in
17:42 32.6 °F 16.8 °F 1010.0 in SSE 16.7 mph 16.7 mph 39 % 0.0 in
17:47 32.4 °F 17.1 °F 1010.0 in ESE 7.4 mph 7.4 mph 40 % 0.0 in
17:52 32.0 °F 17.1 °F 1010.0 in ENE 16.7 mph 16.7 mph 41 % 0.0 in
17:55 31.8 °F 16.9 °F 1010.0 in East 13.0 mph 13.0 mph 41 % 0.0 in
18:00 31.8 °F 17.3 °F 1010.0 in East 9.3 mph 9.7 mph 42 % 0.0 in
18:05 31.4 °F 16.9 °F 1010.0 in ENE 18.5 mph 18.5 mph 42 % 0.0 in
18:10 31.4 °F 17.3 °F 1010.0 in NE 14.8 mph 14.8 mph 43 % 0.0 in
18:15 31.1 °F 17.1 °F 1010.0 in ESE 14.8 mph 14.8 mph 43 % 0.0 in
18:20 30.9 °F 17.2 °F 1010.0 in ESE 14.8 mph 14.8 mph 44 % 0.0 in
18:25 30.6 °F 17.3 °F 1010.0 in NE 16.7 mph 16.7 mph 45 % 0.0 in
18:30 30.6 °F 17.3 °F 1010.0 in East 11.1 mph 11.1 mph 45 % 0.0 in
18:35 30.4 °F 17.5 °F 1010.0 in East 16.7 mph 16.7 mph 46 % 0.0 in
18:40 30.3 °F 17.4 °F 1010.0 in ESE 17.2 mph 17.2 mph 46 % 0.0 in
18:45 30.3 °F 17.7 °F 1010.0 in ENE 11.1 mph 11.1 mph 47 % 0.0 in
18:50 30.3 °F 17.7 °F 1010.0 in ESE 15.8 mph 15.8 mph 47 % 0.0 in
18:55 29.9 °F 17.7 °F 1010.0 in NE 16.7 mph 16.7 mph 48 % 0.0 in
19:00 29.8 °F 17.9 °F 1010.0 in ENE 14.8 mph 14.8 mph 49 % 0.0 in
19:05 29.6 °F 17.8 °F 1010.0 in East 13.0 mph 13.0 mph 49 % 0.0 in
19:10 29.3 °F 17.8 °F 1010.0 in ENE 14.8 mph 14.8 mph 50 % 0.0 in
19:15 29.3 °F 18.1 °F 1010.0 in ENE 13.0 mph 13.0 mph 51 % 0.0 in
19:20 29.2 °F 18.3 °F 1010.0 in East 14.8 mph 14.8 mph 52 % 0.0 in
19:25 29.1 °F 18.2 °F 1010.0 in ENE 13.0 mph 13.0 mph 52 % 0.0 in
19:30 28.8 °F 18.6 °F 1010.0 in ESE 16.7 mph 16.7 mph 54 % 0.0 in
19:35 28.6 °F 18.7 °F 1010.0 in ESE 14.8 mph 14.8 mph 55 % 0.0 in
19:40 28.6 °F 18.7 °F 1010.0 in ESE 9.3 mph 9.3 mph 55 % 0.0 in
19:45 28.6 °F 18.7 °F 1010.0 in ESE 13.7 mph 13.7 mph 55 % 0.0 in
19:50 28.4 °F 18.8 °F 1010.0 in ESE 11.1 mph 11.1 mph 56 % 0.0 in
19:55 28.3 °F 18.7 °F 1010.0 in ESE 16.7 mph 16.7 mph 56 % 0.0 in
20:00 28.0 °F 18.7 °F 1010.0 in ESE 10.0 mph 10.0 mph 57 % 0.0 in
20:05 27.9 °F 18.6 °F 1010.0 in East 11.1 mph 11.1 mph 57 % 0.0 in
20:10 27.8 °F 18.8 °F 1010.0 in ESE 11.1 mph 11.1 mph 58 % 0.0 in
20:15 27.7 °F 18.4 °F 1010.0 in ESE 13.0 mph 13.0 mph 57 % 0.0 in
20:20 27.5 °F 18.2 °F 1010.0 in ESE 11.9 mph 11.9 mph 57 % 0.0 in
20:25 27.4 °F 18.1 °F 1010.0 in ENE 13.0 mph 13.0 mph 57 % 0.0 in
20:30 27.3 °F 17.8 °F 1010.0 in ESE 9.3 mph 9.3 mph 56 % 0.0 in
20:35 27.3 °F 17.8 °F 1010.0 in SE 7.4 mph 7.4 mph 56 % 0.0 in
20:40 27.2 °F 17.7 °F 1010.0 in East 9.3 mph 9.3 mph 56 % 0.0 in
20:45 27.1 °F 17.3 °F 1010.0 in ENE 7.4 mph 7.4 mph 55 % 0.0 in
20:50 27.0 °F 17.2 °F 1010.7 in ENE 6.9 mph 6.9 mph 55 % 0.0 in
20:55 26.9 °F 17.4 °F 1010.7 in ENE 7.4 mph 7.4 mph 56 % 0.0 in
21:00 26.8 °F 17.6 °F 1010.7 in ENE 9.3 mph 9.3 mph 57 % 0.0 in
21:05 26.7 °F 17.5 °F 1009.0 in East 5.6 mph 5.6 mph 57 % 0.0 in
21:10 26.5 °F 17.6 °F 1009.0 in ESE 5.8 mph 5.8 mph 58 % 0.0 in
21:11 26.5 °F 17.6 °F 1009.0 in ENE 5.8 mph 5.8 mph 58 % 0.0 in
21:16 26.4 °F 17.4 °F 1009.0 in ENE 7.4 mph 7.4 mph 58 % 0.0 in
21:20 23.3 °F 18.6 °F 1010.0 in NE 3.2 mph 3.2 mph 75 % 0.0 in
21:21 26.3 °F 17.9 °F 1010.0 in East 9.5 mph 9.5 mph 60 % 0.0 in
21:26 26.1 °F 18.0 °F 1010.0 in NNE 9.3 mph 9.3 mph 61 % 0.0 in
21:30 23.2 °F 18.5 °F 1010.0 in NE 3.2 mph 4.8 mph 75 % 0.0 in
21:31 26.0 °F 17.9 °F 1010.0 in NNE 5.0 mph 5.0 mph 61 % 0.0 in
21:36 25.9 °F 17.8 °F 1010.0 in NE 7.4 mph 7.4 mph 61 % 0.0 in
21:40 23.1 °F 18.6 °F 1010.0 in Calm   3.2 mph 76 % 0.0 in
21:41 25.9 °F 18.1 °F 1010.0 in East 5.6 mph 5.6 mph 62 % 0.0 in
21:46 25.7 °F 18.1 °F 1010.0 in NE 9.3 mph 9.3 mph 63 % 0.0 in
21:50 23.1 °F 18.4 °F 1010.0 in NE 3.2 mph 4.8 mph 75 % 0.0 in
21:51 25.7 °F 18.4 °F 1010.0 in East 9.3 mph 9.3 mph 64 % 0.0 in
21:56 25.6 °F 18.3 °F 1010.0 in ENE 5.8 mph 5.8 mph 64 % 0.0 in
22:00 23.1 °F 18.2 °F 1010.0 in NE 1.6 mph 4.8 mph 74 % 0.0 in
22:01 25.6 °F 18.3 °F 1010.0 in NE 5.6 mph 5.6 mph 64 % 0.0 in
22:06 25.5 °F 18.2 °F 1010.0 in East 5.6 mph 5.6 mph 64 % 0.0 in
22:10 23.1 °F 18.2 °F 1010.0 in NE 3.2 mph 3.2 mph 74 % 0.0 in
22:16 25.4 °F 18.6 °F 1010.0 in ENE 5.6 mph 5.6 mph 66 % 0.0 in
22:20 23.1 °F 18.0 °F 1010.0 in ENE 3.2 mph 8.0 mph 73 % 0.0 in
22:21 25.3 °F 18.5 °F 1010.7 in East 5.8 mph 5.8 mph 66 % 0.0 in
22:26 25.3 °F 18.7 °F 1010.7 in ENE 3.7 mph 4.2 mph 67 % 0.0 in
22:30 23.1 °F 17.8 °F 1010.0 in East 3.2 mph 9.7 mph 72 % 0.0 in
22:31 25.2 °F 18.9 °F 1010.7 in North 7.4 mph 7.4 mph 68 % 0.0 in
22:36 25.1 °F 18.8 °F 1010.7 in ENE 3.7 mph 3.7 mph 68 % 0.0 in
22:40 23.1 °F 17.6 °F 1010.0 in ENE 4.8 mph 4.8 mph 71 % 0.0 in
22:41 25.0 °F 18.7 °F 1010.7 in NNE 5.6 mph 5.8 mph 68 % 0.0 in
22:46 24.9 °F 19.1 °F 1010.7 in ENE 4.2 mph 4.2 mph 70 % 0.0 in
22:50 23.1 °F 17.6 °F 1010.0 in ENE 4.8 mph 6.4 mph 71 % 0.0 in
22:51 24.8 °F 18.9 °F 1010.7 in ENE 7.4 mph 7.4 mph 70 % 0.0 in
22:56 24.8 °F 18.9 °F 1010.7 in ENE 9.3 mph 9.3 mph 70 % 0.0 in
23:00 23.0 °F 17.4 °F 1010.0 in NE 4.8 mph 6.4 mph 71 % 0.0 in
23:01 24.7 °F 18.8 °F 1010.7 in ENE 7.4 mph 7.4 mph 70 % 0.0 in
23:06 24.6 °F 18.8 °F 1010.7 in East 4.2 mph 4.2 mph 70 % 0.0 in
23:10 22.8 °F 17.3 °F 1010.0 in NE 3.2 mph 4.8 mph 71 % 0.0 in
23:11 24.6 °F 19.0 °F 1010.7 in NNE 3.9 mph 3.9 mph 71 % 0.0 in
23:16 24.6 °F 19.0 °F 1010.7 in ENE 7.4 mph 7.4 mph 71 % 0.0 in
23:20 22.7 °F 17.2 °F 1010.0 in NNE 4.8 mph 6.4 mph 71 % 0.0 in
23:21 24.6 °F 19.0 °F 1010.7 in ENE 3.7 mph 3.7 mph 71 % 0.0 in
23:26 24.5 °F 18.9 °F 1010.7 in ENE 3.9 mph 3.9 mph 71 % 0.0 in
23:30 22.7 °F 17.2 °F 1010.0 in NE 4.8 mph 6.4 mph 71 % 0.0 in
23:31 24.5 °F 18.9 °F 1010.7 in East 4.7 mph 4.7 mph 71 % 0.0 in
23:36 24.4 °F 19.0 °F 1010.0 in NNE 1.9 mph 1.9 mph 72 % 0.0 in
23:40 22.6 °F 17.1 °F 1010.0 in NE 4.8 mph 6.4 mph 71 % 0.0 in
23:41 24.4 °F 19.0 °F 1010.0 in Calm     72 % 0.0 in
23:46 24.3 °F 18.9 °F 1010.0 in Calm     72 % 0.0 in
23:50 22.6 °F 17.1 °F 1010.0 in NE 4.8 mph 6.4 mph 71 % 0.0 in
23:51 24.3 °F 18.9 °F 1010.0 in SW 3.7 mph 3.7 mph 72 % 0.0 in
23:56 24.2 °F 18.8 °F 1010.0 in SW 1.9 mph   72 % 0.0 in
Meteo Sesrovires
Elogis d' Weather Underground - 3.75 mb

Guio original per  Jim McMurry - jmcmurry@mwt.net Adaptat per a la plantilla per  Wim van der Kuil - Leuven-Template.eu

Trobareu la nostra informacio del temps tambe a:

Weather Underground

AWEKAS